createdAt,value
2018-11-25T00:01:02.454Z,3.70
2018-11-25T00:03:30.829Z,3.70
2018-11-25T00:11:45.433Z,3.70
2018-11-25T00:14:13.808Z,3.70
2018-11-25T00:16:42.277Z,3.70
2018-11-25T00:19:10.665Z,3.70
2018-11-25T00:21:39.028Z,3.70
2018-11-25T00:24:07.531Z,3.70
2018-11-25T00:26:35.859Z,3.70
2018-11-25T00:29:04.212Z,3.70
2018-11-25T00:31:36.014Z,3.70
2018-11-25T00:34:04.328Z,3.70
2018-11-25T00:36:32.676Z,3.70
2018-11-25T00:39:00.954Z,3.70
2018-11-25T00:41:29.405Z,3.70
2018-11-25T00:43:57.755Z,3.70
2018-11-25T00:46:26.078Z,3.70
2018-11-25T00:48:54.398Z,3.70
2018-11-25T00:51:22.769Z,3.60
2018-11-25T00:53:54.551Z,3.60
2018-11-25T00:56:22.832Z,3.50
2018-11-25T00:58:51.248Z,3.60
2018-11-25T01:01:19.697Z,3.50
2018-11-25T01:03:48.196Z,3.60
2018-11-25T01:06:16.660Z,3.50
2018-11-25T01:08:45.203Z,3.50
2018-11-25T01:11:13.541Z,3.50
2018-11-25T01:13:41.915Z,3.50
2018-11-25T01:16:13.757Z,3.50
2018-11-25T01:18:42.039Z,3.50
2018-11-25T01:21:10.362Z,3.50
2018-11-25T01:23:38.672Z,3.40
2018-11-25T01:26:06.966Z,3.40
2018-11-25T01:28:35.293Z,3.40
2018-11-25T01:31:03.959Z,3.50
2018-11-25T01:33:32.324Z,3.50
2018-11-25T01:36:00.611Z,3.50
2018-11-25T01:41:25.195Z,3.50
2018-11-25T01:43:53.616Z,3.50
2018-11-25T01:46:21.947Z,3.50
2018-11-25T01:48:50.251Z,3.50
2018-11-25T01:51:18.626Z,3.50
2018-11-25T01:53:46.919Z,3.50
2018-11-25T01:56:15.287Z,3.50
2018-11-25T01:58:43.857Z,3.50
2018-11-25T02:01:12.264Z,3.50
2018-11-25T02:06:34.010Z,3.40
2018-11-25T02:09:02.416Z,3.40
2018-11-25T02:11:30.786Z,3.40
2018-11-25T02:13:59.068Z,3.30
2018-11-25T02:16:27.557Z,3.30
2018-11-25T02:18:56.137Z,3.30
2018-11-25T02:21:24.509Z,3.30
2018-11-25T02:23:52.860Z,3.30
2018-11-25T02:26:28.189Z,3.30
2018-11-25T02:28:56.488Z,3.30
2018-11-25T02:31:24.766Z,3.30
2018-11-25T02:33:53.447Z,3.30
2018-11-25T02:36:21.817Z,3.20
2018-11-25T02:38:50.161Z,3.20
2018-11-25T02:41:18.859Z,3.30
2018-11-25T02:43:47.147Z,3.30
2018-11-25T02:46:15.454Z,3.30
2018-11-25T02:54:29.845Z,3.30
2018-11-25T02:56:58.134Z,3.30
2018-11-25T02:59:26.411Z,3.30
2018-11-25T03:01:54.716Z,3.40
2018-11-25T03:04:23.072Z,3.40
2018-11-25T03:06:51.526Z,3.40
2018-11-25T03:09:19.926Z,3.30
2018-11-25T03:11:48.230Z,3.40
2018-11-25T03:14:16.533Z,3.40
2018-11-25T03:16:44.923Z,3.40
2018-11-25T03:19:13.402Z,3.40
2018-11-25T03:21:41.712Z,3.50
2018-11-25T03:24:10.062Z,3.50
2018-11-25T03:26:38.368Z,3.50
2018-11-25T03:29:06.689Z,3.50
2018-11-25T03:31:38.527Z,3.50
2018-11-25T03:34:06.887Z,3.50
2018-11-25T03:36:35.193Z,3.50
2018-11-25T03:39:04.227Z,3.50
2018-11-25T03:41:32.641Z,3.60
2018-11-25T03:44:01.068Z,3.50
2018-11-25T03:46:29.537Z,3.50
2018-11-25T03:48:57.885Z,3.50
2018-11-25T03:51:26.252Z,3.50
2018-11-25T03:53:54.549Z,3.50
2018-11-25T03:56:24.527Z,3.50
2018-11-25T03:58:52.821Z,3.50
2018-11-25T04:01:21.141Z,3.50
2018-11-25T04:03:49.495Z,3.50
2018-11-25T04:06:17.911Z,3.50
2018-11-25T04:08:46.290Z,3.40
2018-11-25T04:11:14.645Z,3.40
2018-11-25T04:13:42.968Z,3.40
2018-11-25T04:16:11.345Z,3.40
2018-11-25T04:18:39.648Z,3.40
2018-11-25T04:21:07.968Z,3.40
2018-11-25T04:23:36.372Z,3.30
2018-11-25T04:26:05.101Z,3.40
2018-11-25T04:28:33.477Z,3.30
2018-11-25T04:31:01.752Z,3.30
2018-11-25T04:33:30.259Z,3.30
2018-11-25T04:36:01.862Z,3.30
2018-11-25T04:38:30.181Z,3.30
2018-11-25T04:40:58.529Z,3.30
2018-11-25T04:43:26.841Z,3.30
2018-11-25T04:45:55.128Z,3.30
2018-11-25T04:48:23.422Z,3.30
2018-11-25T04:50:51.722Z,3.30
2018-11-25T04:53:20.013Z,3.30
2018-11-25T04:55:48.328Z,3.30
2018-11-25T04:58:16.677Z,3.30
2018-11-25T05:00:45.045Z,3.30
2018-11-25T05:03:13.422Z,3.40
2018-11-25T05:05:41.676Z,3.30
2018-11-25T05:08:10.026Z,3.40
2018-11-25T05:10:38.339Z,3.40
2018-11-25T05:13:06.952Z,3.40
2018-11-25T05:15:35.313Z,3.40
2018-11-25T05:18:03.704Z,3.40
2018-11-25T05:20:32.112Z,3.30
2018-11-25T05:23:00.432Z,3.30
2018-11-25T05:25:28.741Z,3.30
2018-11-25T05:27:57.091Z,3.30
2018-11-25T05:30:25.736Z,3.30
2018-11-25T05:32:54.409Z,3.30
2018-11-25T05:35:24.818Z,3.30
2018-11-25T05:37:53.115Z,3.30
2018-11-25T05:40:21.444Z,3.30
2018-11-25T05:42:49.741Z,3.30
2018-11-25T05:45:19.582Z,3.30
2018-11-25T05:47:47.969Z,3.20
2018-11-25T05:50:17.082Z,3.20
2018-11-25T05:52:45.601Z,3.20
2018-11-25T05:55:14.175Z,3.30
2018-11-25T05:57:42.627Z,3.30
2018-11-25T06:00:15.293Z,3.30
2018-11-25T06:02:43.629Z,3.30
2018-11-25T06:05:12.473Z,3.20
2018-11-25T06:07:41.330Z,3.20
2018-11-25T06:10:11.686Z,3.20
2018-11-25T06:12:40.532Z,3.10
2018-11-25T06:15:11.052Z,3.10
2018-11-25T06:17:39.550Z,3.10
2018-11-25T06:20:10.532Z,3.10
2018-11-25T06:22:38.983Z,3.00
2018-11-25T06:25:08.692Z,3.10
2018-11-25T06:27:38.342Z,3.10
2018-11-25T06:30:08.079Z,3.10
2018-11-25T06:32:36.414Z,3.10
2018-11-25T06:35:06.081Z,3.10
2018-11-25T06:37:34.459Z,3.10
2018-11-25T06:40:02.875Z,3.10
2018-11-25T06:42:31.197Z,3.10
2018-11-25T06:44:59.641Z,3.10
2018-11-25T06:47:27.918Z,3.10
2018-11-25T06:49:56.328Z,3.10
2018-11-25T06:52:24.611Z,3.10
2018-11-25T07:06:27.858Z,3.10
2018-11-25T07:08:56.509Z,3.10
2018-11-25T07:11:24.941Z,3.00
2018-11-25T07:13:54.952Z,3.00
2018-11-25T07:16:23.366Z,3.00
2018-11-25T07:18:51.684Z,3.00
2018-11-25T07:21:19.980Z,3.00
2018-11-25T07:23:48.303Z,3.00
2018-11-25T07:26:16.614Z,3.00
2018-11-25T07:34:30.572Z,2.90
2018-11-25T07:36:58.896Z,3.00
2018-11-25T07:39:27.237Z,3.00
2018-11-25T07:41:55.544Z,3.00
2018-11-25T07:44:23.947Z,3.00
2018-11-25T07:46:52.309Z,3.00
2018-11-25T07:49:20.594Z,3.00
2018-11-25T07:51:48.929Z,3.00
2018-11-25T07:54:17.257Z,3.00
2018-11-25T07:56:45.567Z,3.00
2018-11-25T07:59:13.971Z,3.00
2018-11-25T08:01:42.315Z,3.10
2018-11-25T08:07:07.114Z,3.10
2018-11-25T08:09:35.598Z,3.10
2018-11-25T08:12:04.185Z,3.20
2018-11-25T08:14:32.526Z,3.20
2018-11-25T08:17:00.855Z,3.20
2018-11-25T08:19:29.149Z,3.30
2018-11-25T08:21:57.512Z,3.30
2018-11-25T08:24:25.875Z,3.40
2018-11-25T08:26:54.694Z,3.40
2018-11-25T08:29:23.800Z,3.50
2018-11-25T08:31:52.287Z,3.50
2018-11-25T08:34:21.371Z,3.60
2018-11-25T08:36:48.993Z,3.60
2018-11-25T08:39:17.377Z,3.60
2018-11-25T08:41:45.801Z,3.70
2018-11-25T08:44:14.130Z,3.70
2018-11-25T08:46:42.514Z,3.70
2018-11-25T08:49:10.934Z,3.60
2018-11-25T08:51:39.390Z,3.60
2018-11-25T08:54:08.019Z,3.60
2018-11-25T08:56:36.412Z,3.50
2018-11-25T08:59:04.851Z,3.60
2018-11-25T09:01:33.312Z,3.60
2018-11-25T09:04:01.702Z,3.60
2018-11-25T09:06:30.210Z,3.60
2018-11-25T09:08:58.627Z,3.60
2018-11-25T09:11:26.936Z,3.70
2018-11-25T09:13:55.421Z,3.70
2018-11-25T09:16:23.785Z,3.70
2018-11-25T09:18:52.301Z,3.80
2018-11-25T09:21:20.725Z,3.80
2018-11-25T09:23:49.036Z,3.90
2018-11-25T09:26:17.374Z,4.00
2018-11-25T09:28:45.886Z,4.10
2018-11-25T09:31:14.279Z,4.20
2018-11-25T09:33:42.638Z,4.10
2018-11-25T09:36:10.956Z,4.20
2018-11-25T09:38:39.331Z,4.30
2018-11-25T09:41:07.698Z,4.30
2018-11-25T09:43:35.986Z,4.30
2018-11-25T09:46:04.359Z,4.30
2018-11-25T09:48:32.719Z,4.40
2018-11-25T09:56:46.220Z,4.40
2018-11-25T09:59:14.706Z,4.40
2018-11-25T10:01:43.376Z,4.30
2018-11-25T10:04:11.851Z,4.30
2018-11-25T10:06:40.197Z,4.30
2018-11-25T10:09:09.417Z,4.30
2018-11-25T10:11:38.265Z,4.30
2018-11-25T10:14:06.794Z,4.30
2018-11-25T10:16:35.237Z,4.40
2018-11-25T10:19:03.880Z,4.50
2018-11-25T10:21:32.368Z,4.50
2018-11-25T10:24:00.826Z,4.50
2018-11-25T10:26:29.307Z,4.50
2018-11-25T10:28:57.732Z,4.60
2018-11-25T10:31:26.114Z,4.60
2018-11-25T10:33:54.800Z,4.70
2018-11-25T10:36:23.138Z,4.70
2018-11-25T10:38:51.558Z,4.80
2018-11-25T10:41:20.331Z,4.80
2018-11-25T10:43:48.747Z,4.80
2018-11-25T10:46:17.281Z,4.70
2018-11-25T10:48:45.770Z,4.70
2018-11-25T10:51:14.125Z,4.80
2018-11-25T10:53:42.932Z,4.90
2018-11-25T10:56:11.221Z,4.90
2018-11-25T10:58:39.616Z,4.90
2018-11-25T11:01:13.418Z,4.80
2018-11-25T11:03:47.893Z,4.80
2018-11-25T11:06:21.440Z,4.90
2018-11-25T11:08:49.801Z,4.90
2018-11-25T11:11:18.321Z,4.90
2018-11-25T11:13:46.717Z,4.80
2018-11-25T11:16:15.121Z,4.80
2018-11-25T11:18:43.594Z,4.80
2018-11-25T11:21:11.986Z,4.70
2018-11-25T11:23:40.334Z,4.70
2018-11-25T11:26:18.852Z,4.70
2018-11-25T11:28:47.246Z,4.70
2018-11-25T11:31:15.678Z,4.70
2018-11-25T11:33:44.074Z,4.70
2018-11-25T11:36:12.595Z,4.80
2018-11-25T11:38:41.266Z,4.80
2018-11-25T11:41:09.794Z,4.90
2018-11-25T11:43:38.263Z,4.90
2018-11-25T11:46:06.743Z,5.00
2018-11-25T11:48:35.272Z,5.00
2018-11-25T11:51:03.845Z,5.00
2018-11-25T11:53:42.436Z,5.10
2018-11-25T11:59:03.965Z,5.10
2018-11-25T12:01:32.522Z,5.00
2018-11-25T12:04:00.999Z,5.10
2018-11-25T12:06:29.713Z,5.10
2018-11-25T12:08:58.196Z,5.20
2018-11-25T12:11:26.695Z,5.20
2018-11-25T12:13:55.402Z,5.10
2018-11-25T12:16:23.947Z,5.10
2018-11-25T12:18:55.952Z,5.10
2018-11-25T12:21:33.790Z,5.10
2018-11-25T12:24:02.329Z,5.10
2018-11-25T12:26:30.746Z,5.10
2018-11-25T12:28:59.162Z,5.10
2018-11-25T12:31:27.562Z,5.00
2018-11-25T12:33:56.592Z,5.10
2018-11-25T12:36:25.054Z,5.10
2018-11-25T12:38:53.394Z,5.10
2018-11-25T12:41:21.801Z,5.10
2018-11-25T12:43:50.169Z,5.10
2018-11-25T12:46:18.732Z,5.10
2018-11-25T12:48:47.182Z,5.00
2018-11-25T12:51:21.927Z,5.10
2018-11-25T12:53:50.802Z,5.00
2018-11-25T12:56:19.168Z,5.10
2018-11-25T12:58:47.741Z,5.00
2018-11-25T13:01:16.128Z,5.00
2018-11-25T13:03:44.588Z,5.00
2018-11-25T13:06:13.041Z,5.00
2018-11-25T13:08:41.451Z,5.00
2018-11-25T13:11:09.869Z,5.00
2018-11-25T13:13:38.244Z,5.10
2018-11-25T13:16:06.602Z,5.00
2018-11-25T13:18:35.832Z,5.10
2018-11-25T13:21:03.616Z,5.10
2018-11-25T13:23:31.981Z,5.10
2018-11-25T13:26:00.350Z,5.10
2018-11-25T13:28:28.723Z,5.20
2018-11-25T13:30:57.114Z,5.20
2018-11-25T13:33:25.683Z,5.20
2018-11-25T13:35:54.024Z,5.30
2018-11-25T13:38:22.808Z,5.30
2018-11-25T13:40:51.204Z,5.20
2018-11-25T13:43:19.625Z,5.20
2018-11-25T13:45:47.957Z,5.20
2018-11-25T13:48:16.361Z,5.20
2018-11-25T13:50:44.696Z,5.20
2018-11-25T13:53:13.805Z,5.10
2018-11-25T13:55:42.184Z,5.10
2018-11-25T13:58:10.520Z,5.10
2018-11-25T14:00:42.954Z,5.10
2018-11-25T14:03:13.586Z,5.00
2018-11-25T14:05:41.937Z,5.00
2018-11-25T14:08:10.345Z,4.90
2018-11-25T14:10:38.770Z,4.90
2018-11-25T14:13:07.601Z,4.90
2018-11-25T14:15:36.128Z,4.90
2018-11-25T14:18:04.495Z,4.90
2018-11-25T14:20:32.818Z,4.90
2018-11-25T14:23:01.225Z,4.90
2018-11-25T14:25:29.644Z,4.90
2018-11-25T14:28:01.074Z,4.80
2018-11-25T14:30:30.560Z,4.90
2018-11-25T14:32:58.903Z,4.80
2018-11-25T14:35:27.381Z,4.80
2018-11-25T14:37:55.801Z,4.80
2018-11-25T14:40:24.230Z,4.80
2018-11-25T14:42:52.805Z,4.80
2018-11-25T14:45:21.548Z,4.70
2018-11-25T14:47:49.903Z,4.70
2018-11-25T14:50:19.332Z,4.80
2018-11-25T14:52:48.955Z,4.70
2018-11-25T14:55:17.569Z,4.80
2018-11-25T14:57:46.045Z,4.60
2018-11-25T15:00:17.882Z,4.70
2018-11-25T15:02:47.899Z,4.70
2018-11-25T15:05:25.443Z,4.60
2018-11-25T15:07:53.878Z,4.70
2018-11-25T15:10:22.344Z,4.70
2018-11-25T15:12:50.722Z,4.70
2018-11-25T15:15:19.220Z,4.70
2018-11-25T15:17:47.931Z,4.70
2018-11-25T15:20:16.716Z,4.60
2018-11-25T15:22:47.104Z,4.60
2018-11-25T15:25:23.814Z,4.60
2018-11-25T15:27:52.251Z,4.60
2018-11-25T15:30:20.744Z,4.70
2018-11-25T15:32:49.156Z,4.70
2018-11-25T15:35:21.641Z,4.60
2018-11-25T15:37:51.009Z,4.70
2018-11-25T15:40:29.651Z,4.70
2018-11-25T15:42:58.201Z,4.60
2018-11-25T15:45:26.701Z,4.60
2018-11-25T15:48:03.118Z,4.60
2018-11-25T15:50:32.227Z,4.60
2018-11-25T15:53:00.802Z,4.60
2018-11-25T15:55:29.229Z,4.60
2018-11-25T15:57:57.558Z,4.60
2018-11-25T16:00:26.293Z,4.60
2018-11-25T16:02:54.774Z,4.60
2018-11-25T16:05:25.628Z,4.60
2018-11-25T16:07:54.123Z,4.60
2018-11-25T16:10:22.550Z,4.60
2018-11-25T16:12:51.754Z,4.60
2018-11-25T16:15:22.167Z,4.60
2018-11-25T16:17:50.530Z,4.60
2018-11-25T16:20:21.138Z,4.60
2018-11-25T16:22:53.937Z,4.60
2018-11-25T16:25:26.974Z,4.50
2018-11-25T16:27:58.593Z,4.60
2018-11-25T16:30:26.966Z,4.50
2018-11-25T16:32:55.395Z,4.60
2018-11-25T16:35:24.148Z,4.60
2018-11-25T16:37:52.571Z,4.60
2018-11-25T16:40:21.594Z,4.60
2018-11-25T16:42:50.106Z,4.60
2018-11-25T16:45:18.556Z,4.60
2018-11-25T16:47:46.951Z,4.60
2018-11-25T16:50:24.959Z,4.60
2018-11-25T16:52:46.888Z,4.50
2018-11-25T16:55:15.529Z,4.60
2018-11-25T16:57:44.500Z,4.60
2018-11-25T17:00:16.315Z,4.60
2018-11-25T17:02:44.826Z,4.60
2018-11-25T17:05:15.862Z,4.60
2018-11-25T17:07:45.553Z,4.60
2018-11-25T17:10:13.908Z,4.60
2018-11-25T17:12:42.569Z,4.60
2018-11-25T17:15:17.881Z,4.60
2018-11-25T17:17:46.217Z,4.60
2018-11-25T17:20:14.694Z,4.70
2018-11-25T17:22:43.071Z,4.70
2018-11-25T17:25:12.728Z,4.70
2018-11-25T17:27:41.124Z,4.70
2018-11-25T17:30:15.504Z,4.70
2018-11-25T17:32:44.525Z,4.70
2018-11-25T17:35:21.110Z,4.70
2018-11-25T17:37:49.794Z,4.70
2018-11-25T17:40:18.210Z,4.70
2018-11-25T17:42:46.622Z,4.70
2018-11-25T17:45:15.123Z,4.70
2018-11-25T17:47:43.655Z,4.70
2018-11-25T17:50:17.240Z,4.70
2018-11-25T17:52:46.079Z,4.70
2018-11-25T17:55:15.133Z,4.70
2018-11-25T17:57:43.730Z,4.70
2018-11-25T18:00:15.753Z,4.70
2018-11-25T18:02:44.099Z,4.70
2018-11-25T18:05:12.521Z,4.70
2018-11-25T18:07:40.927Z,4.70
2018-11-25T18:10:11.251Z,4.70
2018-11-25T18:12:39.864Z,4.70
2018-11-25T18:15:15.818Z,4.70
2018-11-25T18:17:46.705Z,4.70
2018-11-25T18:20:15.093Z,4.80
2018-11-25T18:22:46.741Z,4.70
2018-11-25T18:25:15.128Z,4.70
2018-11-25T18:27:43.550Z,4.70
2018-11-25T18:30:13.859Z,4.70
2018-11-25T18:32:42.913Z,4.70
2018-11-25T18:35:11.290Z,4.80
2018-11-25T18:37:40.248Z,4.80
2018-11-25T18:40:11.159Z,4.80
2018-11-25T18:42:40.070Z,4.80
2018-11-25T18:45:13.628Z,4.80
2018-11-25T18:47:42.825Z,4.80
2018-11-25T18:50:12.726Z,4.80
2018-11-25T18:52:41.528Z,4.80
2018-11-25T18:55:08.828Z,4.80
2018-11-25T18:57:37.185Z,4.80
2018-11-25T19:00:11.298Z,4.80
2018-11-25T19:02:43.061Z,4.80
2018-11-25T19:05:11.468Z,4.90
2018-11-25T19:07:40.146Z,4.90
2018-11-25T19:10:12.277Z,4.90
2018-11-25T19:12:44.400Z,4.90
2018-11-25T19:15:10.596Z,4.90
2018-11-25T19:17:39.037Z,4.80
2018-11-25T19:20:12.602Z,4.80
2018-11-25T19:22:41.243Z,4.90
2018-11-25T19:25:11.056Z,4.90
2018-11-25T19:27:39.476Z,4.90
2018-11-25T19:30:11.476Z,4.90
2018-11-25T19:32:40.598Z,4.90
2018-11-25T19:35:13.812Z,4.90
2018-11-25T19:37:42.952Z,4.90
2018-11-25T19:40:14.236Z,4.90
2018-11-25T19:42:43.171Z,4.90
2018-11-25T19:45:13.823Z,4.90
2018-11-25T19:47:42.387Z,4.90
2018-11-25T19:50:13.635Z,4.90
2018-11-25T19:52:41.958Z,5.00
2018-11-25T19:55:10.359Z,4.90
2018-11-25T19:57:38.782Z,4.90
2018-11-25T20:00:13.750Z,4.90
2018-11-25T20:02:42.059Z,4.90
2018-11-25T20:05:11.886Z,4.90
2018-11-25T20:07:40.549Z,4.90
2018-11-25T20:10:10.497Z,4.90
2018-11-25T20:12:42.641Z,4.90
2018-11-25T20:15:13.056Z,4.90
2018-11-25T20:17:41.626Z,4.90
2018-11-25T20:20:11.330Z,4.90
2018-11-25T20:22:40.313Z,4.90
2018-11-25T20:25:11.053Z,4.90
2018-11-25T20:27:46.774Z,4.90
2018-11-25T20:30:16.350Z,5.00
2018-11-25T20:32:50.235Z,4.90
2018-11-25T20:35:18.608Z,5.00
2018-11-25T20:37:52.392Z,5.00
2018-11-25T20:40:21.041Z,5.00
2018-11-25T20:42:49.493Z,5.00
2018-11-25T20:45:24.184Z,5.00
2018-11-25T20:47:52.628Z,5.00
2018-11-25T20:50:21.170Z,5.00
2018-11-25T20:52:54.923Z,5.00
2018-11-25T20:55:23.316Z,5.00
2018-11-25T20:57:51.762Z,5.10
2018-11-25T21:00:22.267Z,5.10
2018-11-25T21:02:50.631Z,5.00
2018-11-25T21:05:19.421Z,5.10
2018-11-25T21:07:48.206Z,5.10
2018-11-25T21:10:17.915Z,5.10
2018-11-25T21:12:50.246Z,5.00
2018-11-25T21:15:18.710Z,5.10
2018-11-25T21:17:56.625Z,5.10
2018-11-25T21:20:26.658Z,5.00
2018-11-25T21:22:55.002Z,5.00
2018-11-25T21:25:23.817Z,5.00
2018-11-25T21:27:52.268Z,5.00
2018-11-25T21:30:23.705Z,5.00
2018-11-25T21:32:57.809Z,5.00
2018-11-25T21:35:26.144Z,5.00
2018-11-25T21:37:54.458Z,5.10
2018-11-25T21:40:23.907Z,5.00
2018-11-25T21:42:52.271Z,5.00
2018-11-25T21:45:21.075Z,5.00
2018-11-25T21:47:49.596Z,5.00
2018-11-25T21:50:19.931Z,5.00
2018-11-25T21:52:48.363Z,5.10
2018-11-25T21:55:17.791Z,5.00
2018-11-25T21:57:46.152Z,5.10
2018-11-25T22:00:15.687Z,5.00
2018-11-25T22:02:44.138Z,5.00
2018-11-25T22:05:13.948Z,5.00
2018-11-25T22:07:42.341Z,5.00
2018-11-25T22:10:12.845Z,5.00
2018-11-25T22:12:41.815Z,5.10
2018-11-25T22:15:19.073Z,5.00
2018-11-25T22:17:47.889Z,5.00
2018-11-25T22:20:17.005Z,5.00
2018-11-25T22:22:45.493Z,5.00
2018-11-25T22:25:15.130Z,5.00
2018-11-25T22:27:43.769Z,5.10
2018-11-25T22:30:13.289Z,5.10
2018-11-25T22:32:41.726Z,5.00
2018-11-25T22:35:13.285Z,5.00
2018-11-25T22:37:42.114Z,5.00
2018-11-25T22:40:10.842Z,5.10
2018-11-25T22:42:39.853Z,5.00
2018-11-25T22:45:10.565Z,5.00
2018-11-25T22:47:38.859Z,5.10
2018-11-25T22:50:11.475Z,5.10
2018-11-25T22:52:39.752Z,5.00
2018-11-25T22:55:10.655Z,5.10
2018-11-25T22:57:39.000Z,5.10
2018-11-25T23:00:15.619Z,5.10
2018-11-25T23:02:43.924Z,5.00
2018-11-25T23:05:23.369Z,5.10
2018-11-25T23:07:51.769Z,5.10
2018-11-25T23:10:20.372Z,5.10
2018-11-25T23:12:48.784Z,5.10
2018-11-25T23:18:10.575Z,5.10
2018-11-25T23:20:38.964Z,5.10
2018-11-25T23:23:07.633Z,5.10
2018-11-25T23:25:36.388Z,5.10
2018-11-25T23:28:04.700Z,5.10
2018-11-25T23:30:33.031Z,5.10
2018-11-25T23:33:01.396Z,5.10
2018-11-25T23:35:31.001Z,5.10
2018-11-25T23:37:59.362Z,5.10
2018-11-25T23:40:27.763Z,5.10
2018-11-25T23:42:56.133Z,5.10
2018-11-25T23:45:24.455Z,5.10
2018-11-25T23:47:53.084Z,5.10
2018-11-25T23:50:21.808Z,5.10
2018-11-25T23:52:50.139Z,5.10
2018-11-25T23:55:18.451Z,5.10
2018-11-25T23:57:46.741Z,5.10
